Time;durP1;ratioP1;P1;durP2;ratioP2;P2;SDS_P1;SDS_P2;PMS_P1;PMS_P2;Temp;Humidity;BMP_temperature;BMP_pressure;BME280_temperature;BME280_humidity;BME280_pressure;Samples;Min_cycle;Max_cycle;Signal;HPM_P1;HPM_P2
2023/08/10 19:49:49;;;;;;;53.50;3.63;;;21.70;99.90;;;;;;4372266;26;20224;-49
2023/08/10 19:52:15;;;;;;;27.37;3.23;;;21.70;99.90;;;;;;5056928;28;20514;-48
2023/08/10 19:54:40;;;;;;;19.47;3.90;;;21.50;99.90;;;;;;5037952;28;20687;-49
2023/08/10 19:57:06;;;;;;;21.50;2.80;;;21.50;99.90;;;;;;5069430;28;20226;-49
2023/08/10 19:59:32;;;;;;;16.20;3.80;;;21.30;99.90;;;;;;5058216;28;20184;-47
2023/08/10 20:01:58;;;;;;;16.73;2.33;;;21.30;99.90;;;;;;5076347;28;20175;-48
2023/08/10 20:04:23;;;;;;;12.23;2.73;;;21.20;99.90;;;;;;5076011;28;20690;-49
2023/08/10 20:06:49;;;;;;;11.03;2.30;;;21.10;99.90;;;;;;5075981;28;20210;-48
2023/08/10 20:09:15;;;;;;;24.30;2.70;;;21.00;99.90;;;;;;5057989;28;20248;-48
2023/08/10 20:11:42;;;;;;;11.73;2.30;;;21.00;99.90;;;;;;5075959;28;20180;-48
2023/08/10 20:14:07;;;;;;;12.13;2.53;;;20.90;99.90;;;;;;5075787;28;20564;-48
2023/08/10 20:16:33;;;;;;;13.80;2.60;;;20.80;99.90;;;;;;5075942;28;20195;-48
2023/08/10 20:18:59;;;;;;;10.37;2.00;;;20.70;99.90;;;;;;5084099;28;20199;-47
2023/08/10 20:21:29;;;;;;;7.53;2.20;;;20.70;99.90;;;;;;5082179;28;20511;-47
2023/08/10 20:23:56;;;;;;;4.60;2.03;;;20.60;99.90;;;;;;5057942;28;20569;-48
2023/08/10 20:26:22;;;;;;;14.97;3.00;;;20.50;99.90;;;;;;5076102;28;20670;-48
2023/08/10 20:28:48;;;;;;;15.50;2.43;;;20.50;99.90;;;;;;5075635;28;20187;-48
2023/08/10 20:31:14;;;;;;;11.83;2.30;;;20.40;99.90;;;;;;5057537;28;20195;-48
2023/08/10 20:33:43;;;;;;;14.13;2.83;;;20.30;99.90;;;;;;5057484;28;20237;-47
2023/08/10 20:36:10;;;;;;;9.77;2.37;;;20.20;99.90;;;;;;5076068;28;20234;-47
2023/08/10 20:38:36;;;;;;;5.93;2.17;;;20.10;99.90;;;;;;5075314;28;20180;-47
2023/08/10 20:41:06;;;;;;;15.73;2.93;;;20.10;99.90;;;;;;5057414;28;20273;-47
2023/08/10 20:43:32;;;;;;;11.10;2.40;;;20.00;99.90;;;;;;5057534;28;20188;-48
2023/08/10 20:46:01;;;;;;;15.03;2.57;;;19.90;99.90;;;;;;5075383;28;20218;-49
2023/08/10 20:48:27;;;;;;;11.67;2.90;;;19.90;99.90;;;;;;5057540;28;20214;-49
2023/08/10 20:50:53;;;;;;;7.83;2.40;;;19.90;99.90;;;;;;5057470;28;20184;-48
2023/08/10 20:53:19;;;;;;;8.03;2.37;;;19.80;99.90;;;;;;5057049;28;20624;-48
2023/08/10 20:55:45;;;;;;;9.17;2.33;;;19.80;99.90;;;;;;5057170;28;20187;-47
2023/08/10 20:58:11;;;;;;;5.93;2.13;;;19.70;99.90;;;;;;5075015;28;20187;-47
2023/08/10 21:00:37;;;;;;;11.07;2.13;;;19.60;99.90;;;;;;5074993;28;20179;-48
2023/08/10 21:03:04;;;;;;;8.23;2.50;;;19.60;99.90;;;;;;5075418;28;20543;-48
2023/08/10 21:05:31;;;;;;;10.43;2.90;;;19.50;99.90;;;;;;5075058;28;20191;-47
2023/08/10 21:07:57;;;;;;;6.70;2.63;;;19.40;99.90;;;;;;5056909;28;20194;-48
2023/08/10 21:10:23;;;;;;;18.13;2.80;;;19.30;99.90;;;;;;5074830;28;20184;-48
2023/08/10 21:12:49;;;;;;;8.70;2.97;;;19.30;99.90;;;;;;5056729;28;20253;-47
2023/08/10 21:15:26;;;;;;;10.63;2.90;;;19.20;99.90;;;;;;5056805;28;20228;-48
2023/08/10 21:17:52;;;;;;;13.20;2.73;;;19.10;99.90;;;;;;5040100;28;20682;-47
2023/08/10 21:20:18;;;;;;;12.83;2.97;;;19.10;99.90;;;;;;5057389;28;20313;-47
2023/08/10 21:22:44;;;;;;;13.10;3.13;;;19.00;99.90;;;;;;5074522;28;20179;-47
2023/08/10 21:25:10;;;;;;;13.20;2.57;;;19.00;99.90;;;;;;5056560;28;20554;-46
2023/08/10 21:27:35;;;;;;;10.83;3.03;;;18.90;99.90;;;;;;5074440;28;20203;-48
2023/08/10 21:30:02;;;;;;;11.07;2.57;;;18.80;99.90;;;;;;5056562;28;20191;-47
2023/08/10 21:32:28;;;;;;;13.17;2.63;;;18.80;99.90;;;;;;5074481;28;20199;-47
2023/08/10 21:34:54;;;;;;;7.87;2.77;;;18.70;99.90;;;;;;5056424;28;20188;-47
2023/08/10 21:37:20;;;;;;;9.63;2.73;;;18.60;99.90;;;;;;5056817;28;20214;-46
2023/08/10 21:39:53;;;;;;;7.70;2.50;;;18.60;99.90;;;;;;5074459;28;20667;-42
2023/08/10 21:42:25;;;;;;;9.03;2.33;;;18.60;99.90;;;;;;5039923;28;20595;-44
2023/08/10 21:45:11;;;;;;;7.50;3.03;;;18.50;99.90;;;;;;5056462;28;20222;-42
2023/08/10 21:47:41;;;;;;;7.20;2.97;;;18.40;99.90;;;;;;5056039;28;20716;-42
2023/08/10 21:50:16;;;;;;;6.37;2.20;;;18.40;99.90;;;;;;5055931;28;20211;-42
2023/08/10 21:52:55;;;;;;;;;;;;;;;;;;;;;
2023/08/10 21:55:29;;;;;;;6.57;2.30;;;18.30;99.90;;;;;;5074171;28;20185;-42
2023/08/10 21:57:55;;;;;;;3.63;2.30;;;18.30;99.90;;;;;;5056129;28;20279;-47
2023/08/10 22:00:46;;;;;;;8.87;2.53;;;18.30;99.90;;;;;;5073944;28;20207;-41
2023/08/10 22:03:55;;;;;;;10.27;2.70;;;18.20;99.90;;;;;;5057207;28;20192;-43
2023/08/10 22:10:01;;;;;;;9.87;3.10;;;18.00;99.90;;;;;;5074326;28;20166;-42
2023/08/10 22:12:35;;;;;;;4.50;2.60;;;18.00;99.90;;;;;;5056047;28;20274;-42
2023/08/10 22:15:08;;;;;;;6.60;3.00;;;18.00;99.90;;;;;;5055609;28;20191;-42
2023/08/10 22:17:47;;;;;;;7.00;2.90;;;17.90;99.90;;;;;;5055807;28;20214;-44
2023/08/10 22:20:26;;;;;;;10.80;2.77;;;17.90;99.90;;;;;;5042824;28;20615;-40
2023/08/10 22:23:07;;;;;;;11.10;3.70;;;17.80;99.90;;;;;;5056375;28;20183;-41
2023/08/10 22:26:22;;;;;;;9.70;2.80;;;17.80;99.90;;;;;;5057151;28;20274;-43
2023/08/10 22:28:51;;;;;;;8.03;2.80;;;17.70;99.90;;;;;;5056730;28;20203;-42
2023/08/10 22:31:29;;;;;;;7.13;3.30;;;17.70;99.90;;;;;;5057359;28;20678;-43
2023/08/10 22:34:07;;;;;;;9.67;3.93;;;17.60;99.90;;;;;;5057501;28;20214;-43
2023/08/10 22:36:39;;;;;;;6.03;3.03;;;17.60;99.90;;;;;;5055650;28;20211;-43
2023/08/10 22:39:07;;;;;;;11.67;3.23;;;17.60;99.90;;;;;;5040351;28;20210;-45
2023/08/10 22:41:34;;;;;;;9.43;3.17;;;17.50;99.90;;;;;;5056434;28;20222;-48
2023/08/10 22:44:03;;;;;;;7.50;3.00;;;17.50;99.90;;;;;;5074519;28;20184;-44
2023/08/10 22:46:29;;;;;;;6.70;3.70;;;17.50;99.90;;;;;;5056470;28;20222;-47
2023/08/10 22:48:59;;;;;;;11.07;3.63;;;17.40;99.90;;;;;;5056130;28;20218;-43
2023/08/10 22:51:36;;;;;;;11.33;3.30;;;17.40;99.90;;;;;;5056432;28;20194;-44
2023/08/10 22:54:29;;;;;;;9.80;4.00;;;17.30;99.90;;;;;;5075459;28;20655;-43
2023/08/10 22:56:55;;;;;;;9.87;3.83;;;17.30;99.90;;;;;;5059392;28;20671;-48
2023/08/10 22:59:26;;;;;;;14.67;3.60;;;17.20;99.90;;;;;;5055861;28;20202;-43
2023/08/10 23:01:51;;;;;;;8.80;3.87;;;17.20;99.90;;;;;;5074212;28;20186;-48
2023/08/10 23:04:35;;;;;;;5.80;4.00;;;17.20;99.90;;;;;;5059069;28;20192;-42
2023/08/10 23:07:02;;;;;;;9.00;4.13;;;17.10;99.90;;;;;;5060353;28;20644;-45
2023/08/10 23:09:35;;;;;;;10.27;4.27;;;17.10;99.90;;;;;;5078458;28;20188;-44
2023/08/10 23:12:06;;;;;;;8.03;4.10;;;17.00;99.90;;;;;;5060708;28;20179;-44
2023/08/10 23:14:33;;;;;;;7.57;4.37;;;17.00;99.90;;;;;;5060092;28;20204;-47
2023/08/10 23:17:00;;;;;;;6.33;4.20;;;16.90;99.90;;;;;;5060520;28;20231;-43
2023/08/10 23:19:30;;;;;;;6.47;3.57;;;16.90;99.90;;;;;;5059953;28;20184;-49
2023/08/10 23:22:04;;;;;;;8.03;5.07;;;16.80;99.90;;;;;;5077574;28;20228;-42
2023/08/10 23:24:30;;;;;;;10.50;4.60;;;16.80;99.90;;;;;;5060086;28;20223;-47
2023/08/10 23:26:55;;;;;;;7.97;4.60;;;16.80;99.90;;;;;;5077757;28;20231;-49
2023/08/10 23:29:26;;;;;;;6.90;3.83;;;16.80;99.90;;;;;;5077678;28;20183;-42
2023/08/10 23:32:06;;;;;;;8.93;3.87;;;16.70;99.90;;;;;;5058364;28;20655;-42
2023/08/10 23:34:33;;;;;;;9.20;3.80;;;16.60;99.90;;;;;;5060048;28;20278;-43
2023/08/10 23:36:58;;;;;;;6.83;4.50;;;16.60;99.90;;;;;;5077477;28;20663;-44
2023/08/10 23:39:24;;;;;;;5.50;4.17;;;16.60;99.90;;;;;;5078037;28;20184;-48
2023/08/10 23:42:01;;;;;;;8.90;4.17;;;16.60;99.90;;;;;;5059713;28;20194;-42
2023/08/10 23:44:27;;;;;;;4.30;3.37;;;16.50;99.90;;;;;;5044160;28;20222;-47
2023/08/10 23:46:55;;;;;;;5.70;4.10;;;16.50;99.90;;;;;;5059493;28;20211;-42
2023/08/10 23:49:21;;;;;;;8.40;3.73;;;16.50;99.90;;;;;;5046303;28;20239;-44
2023/08/10 23:51:49;;;;;;;7.20;3.97;;;16.40;99.90;;;;;;5039472;28;20200;-43
2023/08/10 23:54:16;;;;;;;5.67;3.97;;;16.30;99.90;;;;;;5023309;28;20212;-46
2023/08/10 23:56:43;;;;;;;6.63;4.00;;;16.40;99.90;;;;;;5057178;28;20200;-46
2023/08/10 23:59:46;;;;;;;6.53;4.03;;;16.30;99.90;;;;;;5057219;28;20185;-41
